createdAt,value
2022-09-13T00:01:45.544Z,4.90
2022-09-13T00:04:12.436Z,5.45
2022-09-13T00:06:39.126Z,4.38
2022-09-13T00:09:05.822Z,4.75
2022-09-13T00:11:32.514Z,5.20
2022-09-13T00:13:59.404Z,5.25
2022-09-13T00:16:27.745Z,7.32
2022-09-13T00:18:54.638Z,4.80
2022-09-13T00:21:22.514Z,5.10
2022-09-13T00:23:51.158Z,5.22
2022-09-13T00:26:28.610Z,4.80
2022-09-13T00:28:57.816Z,5.45
2022-09-13T00:31:26.543Z,5.95
2022-09-13T00:33:53.556Z,5.63
2022-09-13T00:36:20.241Z,6.15
2022-09-13T00:38:46.983Z,9.23
2022-09-13T00:41:16.547Z,3.97
2022-09-13T00:43:46.175Z,4.57
2022-09-13T00:46:43.007Z,5.40
2022-09-13T00:49:14.583Z,4.82
2022-09-13T00:51:43.021Z,6.38
2022-09-13T00:54:09.989Z,4.90
2022-09-13T00:56:40.584Z,6.75
2022-09-13T00:59:12.659Z,5.45
2022-09-13T01:01:46.732Z,5.38
2022-09-13T01:04:13.741Z,4.20
2022-09-13T01:06:41.545Z,4.80
2022-09-13T01:09:08.567Z,5.32
2022-09-13T01:11:45.959Z,4.07
2022-09-13T01:14:12.896Z,5.35
2022-09-13T01:16:39.597Z,4.55
2022-09-13T01:19:06.361Z,5.95
2022-09-13T01:22:10.131Z,3.67
2022-09-13T01:24:36.792Z,6.35
2022-09-13T01:27:22.137Z,6.90
2022-09-13T01:29:58.734Z,4.53
2022-09-13T01:32:41.656Z,6.25
2022-09-13T01:35:24.145Z,5.10
2022-09-13T01:37:55.713Z,4.57
2022-09-13T01:41:04.509Z,4.80
2022-09-13T01:43:35.433Z,4.45
2022-09-13T01:46:11.226Z,4.30
2022-09-13T01:49:03.739Z,4.40
2022-09-13T01:51:34.535Z,4.70
2022-09-13T01:54:11.226Z,5.35
2022-09-13T01:56:42.958Z,4.88
2022-09-13T01:59:22.519Z,5.57
2022-09-13T02:01:58.965Z,4.63
2022-09-13T02:04:29.195Z,4.90
2022-09-13T02:07:09.519Z,3.88
2022-09-13T02:09:42.633Z,5.10
2022-09-13T02:12:14.636Z,6.25
2022-09-13T02:14:44.598Z,6.80
2022-09-13T02:17:24.440Z,4.47
2022-09-13T02:20:03.038Z,4.13
2022-09-13T02:22:34.105Z,6.35
2022-09-13T02:25:06.530Z,4.38
2022-09-13T02:27:34.527Z,5.93
2022-09-13T02:30:05.685Z,4.47
2022-09-13T02:32:37.453Z,4.55
2022-09-13T02:35:04.141Z,4.68
2022-09-13T02:37:33.206Z,4.78
2022-09-13T02:40:06.687Z,4.55
2022-09-13T02:42:42.067Z,7.18
2022-09-13T02:45:09.525Z,4.78
2022-09-13T02:47:50.283Z,5.38
2022-09-13T02:50:35.278Z,4.65
2022-09-13T02:53:11.135Z,5.50
2022-09-13T02:55:37.978Z,4.18
2022-09-13T02:58:14.625Z,6.82
2022-09-13T03:00:41.523Z,5.80
2022-09-13T03:03:11.022Z,4.50
2022-09-13T03:05:37.951Z,4.97
2022-09-13T03:08:06.117Z,5.70
2022-09-13T03:10:54.002Z,6.70
2022-09-13T03:13:23.705Z,4.57
2022-09-13T03:15:50.972Z,4.55
2022-09-13T03:18:33.115Z,4.03
2022-09-13T03:21:36.800Z,4.68
2022-09-13T03:24:23.689Z,7.65
2022-09-13T03:27:18.435Z,4.97
2022-09-13T03:30:07.937Z,4.60
2022-09-13T03:32:47.000Z,4.43
2022-09-13T03:35:23.033Z,5.75
2022-09-13T03:37:57.292Z,6.97
2022-09-13T03:40:36.309Z,6.28
2022-09-13T03:43:18.716Z,5.35
2022-09-13T03:45:49.596Z,7.30
2022-09-13T03:48:16.905Z,4.57
2022-09-13T03:50:45.885Z,6.22
2022-09-13T03:53:15.516Z,4.75
2022-09-13T03:55:43.471Z,4.03
2022-09-13T03:58:15.480Z,3.97
2022-09-13T04:00:42.525Z,5.18
2022-09-13T04:03:09.586Z,5.95
2022-09-13T04:05:36.395Z,5.72
2022-09-13T04:08:05.887Z,4.80
2022-09-13T04:10:33.390Z,6.15
2022-09-13T04:13:00.576Z,5.13
2022-09-13T04:15:28.167Z,4.03
2022-09-13T04:17:54.912Z,4.45
2022-09-13T04:20:22.241Z,5.32
2022-09-13T04:22:53.274Z,6.38
2022-09-13T04:25:20.712Z,4.93
2022-09-13T04:27:47.386Z,4.70
2022-09-13T04:30:14.528Z,4.97
2022-09-13T04:32:44.765Z,4.13
2022-09-13T04:35:12.032Z,4.93
2022-09-13T04:37:39.288Z,6.32
2022-09-13T04:40:09.526Z,5.95
2022-09-13T04:42:36.338Z,5.72
2022-09-13T04:45:03.437Z,6.05
2022-09-13T04:47:31.050Z,5.40
2022-09-13T04:49:57.788Z,6.47
2022-09-13T04:52:24.477Z,5.50
2022-09-13T04:54:51.200Z,6.35
2022-09-13T04:57:17.967Z,8.23
2022-09-13T04:59:44.765Z,5.90
2022-09-13T05:02:11.585Z,8.50
2022-09-13T05:04:38.649Z,5.20
2022-09-13T05:07:05.316Z,5.75
2022-09-13T05:09:32.214Z,7.65
2022-09-13T05:11:58.871Z,9.05
2022-09-13T05:14:25.692Z,5.47
2022-09-13T05:16:52.681Z,8.23
2022-09-13T05:19:19.353Z,5.68
2022-09-13T05:21:46.016Z,8.60
2022-09-13T05:24:12.702Z,5.20
2022-09-13T05:26:39.396Z,8.70
2022-09-13T05:29:06.079Z,5.43
2022-09-13T05:31:35.522Z,7.80
2022-09-13T05:34:06.727Z,6.07
2022-09-13T05:36:33.674Z,6.70
2022-09-13T05:39:28.473Z,6.15
2022-09-13T05:41:48.380Z,9.68
2022-09-13T05:44:15.064Z,15.82
2022-09-13T05:46:42.990Z,7.72
2022-09-13T05:49:09.671Z,11.43
2022-09-13T05:51:36.575Z,8.93
2022-09-13T05:54:03.561Z,8.27
2022-09-13T05:56:32.199Z,8.13
2022-09-13T05:58:59.273Z,7.90
2022-09-13T06:01:27.895Z,8.13
2022-09-13T06:03:56.517Z,12.38
2022-09-13T06:06:24.148Z,9.65
2022-09-13T06:08:57.706Z,8.70
2022-09-13T06:11:26.300Z,8.30
2022-09-13T06:13:53.389Z,10.65
2022-09-13T06:16:20.407Z,12.57
2022-09-13T06:18:47.089Z,10.45
2022-09-13T06:21:18.232Z,7.78
2022-09-13T06:23:54.632Z,10.63
2022-09-13T06:26:23.573Z,9.13
2022-09-13T06:28:51.765Z,10.50
2022-09-13T06:31:20.537Z,9.73
2022-09-13T06:33:47.505Z,10.13
2022-09-13T06:36:18.804Z,11.38
2022-09-13T06:38:49.117Z,9.80
2022-09-13T06:41:20.758Z,9.75
2022-09-13T06:43:48.172Z,12.60
2022-09-13T06:46:20.475Z,10.00
2022-09-13T06:48:50.965Z,9.00
2022-09-13T06:51:19.570Z,11.82
2022-09-13T06:53:48.541Z,10.57
2022-09-13T06:56:17.527Z,12.60
2022-09-13T06:58:46.168Z,11.55
2022-09-13T07:01:18.864Z,10.30
2022-09-13T07:03:48.186Z,12.95
2022-09-13T07:06:22.412Z,13.30
2022-09-13T07:08:51.590Z,12.93
2022-09-13T07:11:21.061Z,12.73
2022-09-13T07:13:52.377Z,9.95
2022-09-13T07:16:21.307Z,12.45
2022-09-13T07:18:52.619Z,12.48
2022-09-13T07:21:19.479Z,11.32
2022-09-13T07:23:46.233Z,11.98
2022-09-13T07:26:12.921Z,11.73
2022-09-13T07:28:41.278Z,11.48
2022-09-13T07:31:10.840Z,12.88
2022-09-13T07:33:39.029Z,13.13
2022-09-13T07:36:06.889Z,10.98
2022-09-13T07:38:34.986Z,14.00
2022-09-13T07:41:02.094Z,10.75
2022-09-13T07:43:29.384Z,9.35
2022-09-13T07:46:10.258Z,10.85
2022-09-13T07:48:39.522Z,10.10
2022-09-13T07:51:08.832Z,10.95
2022-09-13T07:53:36.844Z,10.23
2022-09-13T07:56:14.952Z,13.20
2022-09-13T07:58:43.416Z,14.18
2022-09-13T08:01:16.132Z,12.00
2022-09-13T08:03:43.228Z,10.30
2022-09-13T08:06:10.202Z,12.77
2022-09-13T08:08:37.579Z,11.80
2022-09-13T08:11:06.268Z,11.02
2022-09-13T08:13:33.286Z,11.48
2022-09-13T08:16:05.058Z,11.93
2022-09-13T08:18:32.125Z,10.52
2022-09-13T08:20:59.886Z,10.20
2022-09-13T08:23:27.489Z,13.30
2022-09-13T08:25:54.292Z,15.13
2022-09-13T08:28:26.784Z,14.13
2022-09-13T08:30:54.282Z,13.55
2022-09-13T08:33:21.196Z,11.02
2022-09-13T08:35:52.622Z,10.57
2022-09-13T08:38:19.965Z,11.13
2022-09-13T08:40:55.816Z,9.98
2022-09-13T08:43:46.294Z,11.38
2022-09-13T08:46:27.148Z,9.73
2022-09-13T08:48:56.807Z,8.85
2022-09-13T08:51:39.289Z,11.65
2022-09-13T08:54:06.420Z,11.95
2022-09-13T08:56:42.624Z,10.05
2022-09-13T08:59:27.139Z,8.75
2022-09-13T09:02:18.646Z,8.75
2022-09-13T09:05:01.737Z,9.68
2022-09-13T09:07:31.935Z,10.13
2022-09-13T09:09:59.915Z,10.52
2022-09-13T09:12:32.746Z,9.18
2022-09-13T09:15:04.534Z,10.55
2022-09-13T09:18:04.965Z,7.10
2022-09-13T09:20:41.027Z,6.80
2022-09-13T09:23:30.457Z,8.00
2022-09-13T09:26:09.512Z,9.43
2022-09-13T09:28:36.187Z,7.00
2022-09-13T09:31:08.903Z,7.22
2022-09-13T09:34:08.884Z,6.70
2022-09-13T09:37:13.903Z,11.32
2022-09-13T09:39:40.946Z,6.80
2022-09-13T09:42:28.695Z,8.40
2022-09-13T09:44:58.646Z,7.63
2022-09-13T09:47:33.118Z,7.15
2022-09-13T09:50:09.457Z,8.93
2022-09-13T09:53:14.950Z,9.18
2022-09-13T09:56:01.146Z,6.68
2022-09-13T09:58:39.793Z,7.70
2022-09-13T10:01:25.930Z,6.18
2022-09-13T10:04:13.075Z,6.13
2022-09-13T10:06:41.256Z,7.18
2022-09-13T10:09:16.932Z,7.05
2022-09-13T10:11:58.279Z,7.68
2022-09-13T10:14:38.295Z,5.25
2022-09-13T10:17:06.594Z,7.07
2022-09-13T10:19:33.653Z,7.20
2022-09-13T10:22:02.632Z,6.38
2022-09-13T10:24:30.642Z,6.30
2022-09-13T10:26:58.551Z,6.57
2022-09-13T10:29:27.815Z,6.28
2022-09-13T10:31:57.913Z,6.75
2022-09-13T10:34:29.177Z,5.72
2022-09-13T10:37:21.587Z,5.68
2022-09-13T10:40:05.529Z,6.07
2022-09-13T10:42:32.650Z,5.78
2022-09-13T10:45:02.132Z,6.47
2022-09-13T10:47:40.259Z,7.28
2022-09-13T10:50:22.568Z,5.97
2022-09-13T10:52:59.877Z,8.30
2022-09-13T10:55:31.423Z,6.78
2022-09-13T10:58:07.503Z,6.30
2022-09-13T11:01:06.106Z,7.53
2022-09-13T11:03:38.695Z,7.45
2022-09-13T11:06:31.078Z,7.05
2022-09-13T11:09:19.254Z,8.15
2022-09-13T11:12:21.977Z,8.55
2022-09-13T11:15:05.175Z,9.27
2022-09-13T11:17:50.219Z,9.55
2022-09-13T11:20:27.408Z,11.50
2022-09-13T11:22:57.024Z,10.98
2022-09-13T11:25:38.219Z,9.75
2022-09-13T11:28:10.530Z,10.35
2022-09-13T11:31:03.539Z,11.02
2022-09-13T11:33:46.315Z,16.15
2022-09-13T11:36:24.870Z,12.85
2022-09-13T11:39:08.578Z,12.00
2022-09-13T11:41:48.515Z,10.50
2022-09-13T11:44:40.762Z,10.70
2022-09-13T11:47:26.438Z,10.60
2022-09-13T11:50:04.433Z,11.20
2022-09-13T11:53:24.218Z,13.98
2022-09-13T11:56:02.145Z,13.07
2022-09-13T11:58:35.619Z,11.27
2022-09-13T12:01:05.436Z,16.42
2022-09-13T12:03:50.703Z,12.70
2022-09-13T12:06:34.317Z,13.00
2022-09-13T12:09:07.119Z,14.10
2022-09-13T12:11:35.833Z,11.85
2022-09-13T12:14:05.920Z,10.90
2022-09-13T12:16:36.027Z,12.00
2022-09-13T12:19:17.607Z,12.30
2022-09-13T12:21:45.022Z,9.75
2022-09-13T12:24:17.104Z,13.95
2022-09-13T12:27:23.946Z,11.75
2022-09-13T12:29:53.675Z,13.48
2022-09-13T12:32:21.167Z,9.75
2022-09-13T12:34:58.681Z,11.98
2022-09-13T12:37:31.701Z,11.43
2022-09-13T12:40:18.773Z,12.48
2022-09-13T12:42:56.685Z,11.30
2022-09-13T12:45:50.978Z,11.68
2022-09-13T12:48:43.784Z,10.80
2022-09-13T12:51:40.462Z,11.82
2022-09-13T12:54:07.657Z,13.77
2022-09-13T12:56:46.007Z,12.00
2022-09-13T12:59:24.868Z,11.60
2022-09-13T13:01:52.422Z,11.77
2022-09-13T13:04:21.761Z,11.93
2022-09-13T13:06:57.627Z,13.20
2022-09-13T13:09:31.468Z,11.13
2022-09-13T13:11:58.663Z,11.68
2022-09-13T13:14:40.760Z,12.80
2022-09-13T13:17:44.922Z,13.13
2022-09-13T13:20:49.262Z,12.35
2022-09-13T13:23:38.551Z,12.45
2022-09-13T13:26:12.256Z,13.18
2022-09-13T13:28:48.215Z,15.27
2022-09-13T13:31:24.104Z,13.20
2022-09-13T13:34:14.137Z,13.70
2022-09-13T13:36:41.138Z,13.82
2022-09-13T13:39:10.400Z,12.15
2022-09-13T13:41:40.521Z,11.52
2022-09-13T13:44:19.871Z,13.35
2022-09-13T13:46:51.340Z,14.55
2022-09-13T13:49:30.288Z,12.20
2022-09-13T13:52:09.344Z,11.15
2022-09-13T13:54:42.166Z,12.90
2022-09-13T13:57:21.131Z,12.50
2022-09-13T13:59:50.199Z,10.95
2022-09-13T14:02:19.277Z,13.07
2022-09-13T14:05:18.952Z,13.52
2022-09-13T14:08:19.807Z,12.88
2022-09-13T14:11:31.545Z,13.75
2022-09-13T14:14:23.655Z,13.43
2022-09-13T14:17:00.526Z,12.35
2022-09-13T14:19:28.783Z,12.63
2022-09-13T14:22:15.740Z,11.32
2022-09-13T14:24:48.888Z,15.50
2022-09-13T14:27:23.804Z,12.68
2022-09-13T14:29:55.898Z,15.48
2022-09-13T14:32:26.885Z,13.43
2022-09-13T14:35:01.351Z,12.90
2022-09-13T14:37:31.872Z,13.52
2022-09-13T14:40:01.721Z,61.53
2022-09-13T14:42:39.503Z,67.00
2022-09-13T14:45:06.555Z,65.25
2022-09-13T14:47:53.425Z,34.92
2022-09-13T14:50:27.560Z,20.08
2022-09-13T14:52:54.218Z,16.80
2022-09-13T14:55:43.462Z,13.27
2022-09-13T14:58:23.333Z,10.98
2022-09-13T15:00:53.453Z,10.32
2022-09-13T15:03:20.383Z,11.82
2022-09-13T15:05:59.902Z,12.57
2022-09-13T15:08:32.823Z,9.60
2022-09-13T15:11:06.933Z,10.52
2022-09-13T15:13:34.163Z,8.82
2022-09-13T15:16:00.955Z,9.65
2022-09-13T15:18:36.147Z,6.78
2022-09-13T15:21:07.553Z,8.73
2022-09-13T15:23:39.601Z,8.40
2022-09-13T15:26:13.160Z,7.55
2022-09-13T15:28:48.962Z,9.73
2022-09-13T15:31:23.400Z,6.55
2022-09-13T15:34:13.958Z,5.55
2022-09-13T15:36:40.673Z,6.97
2022-09-13T15:39:17.576Z,4.90
2022-09-13T15:41:59.189Z,5.10
2022-09-13T15:44:29.961Z,5.63
2022-09-13T15:47:05.083Z,6.03
2022-09-13T15:49:32.361Z,7.10
2022-09-13T15:52:03.312Z,5.07
2022-09-13T15:54:34.912Z,4.80
2022-09-13T15:57:01.822Z,6.03
2022-09-13T15:59:28.612Z,4.53
2022-09-13T16:01:56.046Z,4.30
2022-09-13T16:04:23.224Z,6.00
2022-09-13T16:06:49.988Z,5.50
2022-09-13T16:09:20.845Z,4.90
2022-09-13T16:11:48.838Z,4.82
2022-09-13T16:14:15.885Z,4.88
2022-09-13T16:16:43.017Z,5.85
2022-09-13T16:19:16.900Z,4.18
2022-09-13T16:21:43.628Z,5.15
2022-09-13T16:24:11.538Z,7.47
2022-09-13T16:26:38.788Z,6.10
2022-09-13T16:29:05.792Z,6.57
2022-09-13T16:31:32.652Z,5.93
2022-09-13T16:33:59.341Z,5.15
2022-09-13T16:36:28.914Z,4.47
2022-09-13T16:38:56.459Z,4.28
2022-09-13T16:41:23.415Z,4.85
2022-09-13T16:43:51.413Z,4.32
2022-09-13T16:46:18.307Z,5.22
2022-09-13T16:48:45.181Z,6.15
2022-09-13T16:51:12.935Z,4.15
2022-09-13T16:53:41.624Z,4.57
2022-09-13T16:56:16.538Z,7.43
2022-09-13T16:58:46.826Z,4.88
2022-09-13T17:01:15.730Z,5.63
2022-09-13T17:03:42.742Z,5.07
2022-09-13T17:06:11.828Z,4.15
2022-09-13T17:08:40.213Z,5.10
2022-09-13T17:11:12.676Z,5.03
2022-09-13T17:13:40.803Z,4.63
2022-09-13T17:16:20.731Z,5.13
2022-09-13T17:18:47.623Z,3.70
2022-09-13T17:21:14.321Z,5.13
2022-09-13T17:23:41.062Z,6.55
2022-09-13T17:26:07.787Z,3.42
2022-09-13T17:28:36.714Z,4.45
2022-09-13T17:31:03.520Z,4.25
2022-09-13T17:33:30.254Z,4.32
2022-09-13T17:36:05.977Z,4.00
2022-09-13T17:38:33.073Z,5.75
2022-09-13T17:41:05.746Z,3.28
2022-09-13T17:43:33.781Z,4.63
2022-09-13T17:46:05.695Z,3.83
2022-09-13T17:48:32.420Z,3.45
2022-09-13T17:51:07.976Z,4.57
2022-09-13T17:53:55.828Z,4.07
2022-09-13T17:56:31.437Z,3.17
2022-09-13T17:59:10.224Z,6.65
2022-09-13T18:01:39.429Z,3.65
2022-09-13T18:04:07.927Z,4.78
2022-09-13T18:06:36.530Z,2.80
2022-09-13T18:09:08.161Z,4.18
2022-09-13T18:11:35.470Z,2.50
2022-09-13T18:14:02.862Z,5.07
2022-09-13T18:16:30.200Z,3.15
2022-09-13T18:18:57.068Z,3.45
2022-09-13T18:21:25.424Z,2.70
2022-09-13T18:23:55.620Z,3.55
2022-09-13T18:26:23.531Z,3.45
2022-09-13T18:28:56.056Z,3.97
2022-09-13T18:31:23.846Z,3.10
2022-09-13T18:33:58.320Z,4.57
2022-09-13T18:36:26.234Z,3.85
2022-09-13T18:38:53.905Z,4.45
2022-09-13T18:41:23.533Z,4.13
2022-09-13T18:43:55.437Z,3.88
2022-09-13T18:46:25.227Z,4.32
2022-09-13T18:48:54.382Z,4.93
2022-09-13T18:51:35.532Z,4.43
2022-09-13T18:54:03.151Z,4.70
2022-09-13T18:56:29.937Z,4.90
2022-09-13T18:58:56.965Z,3.92
2022-09-13T19:01:26.989Z,5.25
2022-09-13T19:04:02.193Z,5.53
2022-09-13T19:06:40.706Z,4.70
2022-09-13T19:09:08.501Z,4.70
2022-09-13T19:11:47.211Z,3.78
2022-09-13T19:14:23.362Z,4.35
2022-09-13T19:16:51.280Z,6.55
2022-09-13T19:19:18.041Z,6.18
2022-09-13T19:21:45.022Z,3.85
2022-09-13T19:24:18.447Z,5.60
2022-09-13T19:26:47.484Z,4.50
2022-09-13T19:29:15.798Z,5.10
2022-09-13T19:31:47.688Z,5.25
2022-09-13T19:34:15.602Z,6.03
2022-09-13T19:36:44.318Z,4.70
2022-09-13T19:39:11.219Z,5.63
2022-09-13T19:41:38.844Z,6.38
2022-09-13T19:44:06.006Z,6.55
2022-09-13T19:46:35.618Z,5.13
2022-09-13T19:49:02.941Z,5.05
2022-09-13T19:51:35.798Z,6.22
2022-09-13T19:54:03.957Z,4.97
2022-09-13T19:56:34.409Z,8.13
2022-09-13T19:59:01.829Z,4.72
2022-09-13T20:01:31.822Z,3.95
2022-09-13T20:04:03.391Z,4.63
2022-09-13T20:06:44.749Z,4.80
2022-09-13T20:09:13.191Z,6.22
2022-09-13T20:11:42.550Z,4.47
2022-09-13T20:14:11.272Z,4.68
2022-09-13T20:16:39.614Z,5.15
2022-09-13T20:19:29.540Z,6.82
2022-09-13T20:21:55.698Z,4.65
2022-09-13T20:24:23.313Z,4.00
2022-09-13T20:26:52.305Z,6.05
2022-09-13T20:29:19.524Z,6.20
2022-09-13T20:31:47.274Z,5.28
2022-09-13T20:34:17.383Z,7.80
2022-09-13T20:36:45.673Z,5.20
2022-09-13T20:39:12.514Z,4.28
2022-09-13T20:41:39.253Z,5.97
2022-09-13T20:44:07.690Z,7.05
2022-09-13T20:46:34.435Z,6.15
2022-09-13T20:49:02.555Z,6.10
2022-09-13T20:51:33.942Z,5.20
2022-09-13T20:54:01.382Z,4.82
2022-09-13T20:56:29.046Z,6.30
2022-09-13T20:58:58.405Z,4.20
2022-09-13T21:01:26.672Z,5.25
2022-09-13T21:03:54.707Z,6.38
2022-09-13T21:06:27.329Z,5.75
2022-09-13T21:08:56.516Z,6.05
2022-09-13T21:11:34.042Z,4.22
2022-09-13T21:14:05.515Z,3.33
2022-09-13T21:16:34.433Z,5.40
2022-09-13T21:19:01.497Z,4.18
2022-09-13T21:21:30.661Z,5.28
2022-09-13T21:23:58.500Z,10.07
2022-09-13T21:26:27.046Z,4.82
2022-09-13T21:28:54.797Z,4.65
2022-09-13T21:31:25.206Z,5.60
2022-09-13T21:33:56.859Z,4.30
2022-09-13T21:36:24.225Z,6.95
2022-09-13T21:38:52.035Z,7.88
2022-09-13T21:41:18.899Z,8.43
2022-09-13T21:43:45.722Z,9.32
2022-09-13T21:46:16.820Z,6.15
2022-09-13T21:48:46.547Z,6.82
2022-09-13T21:51:18.357Z,7.28
2022-09-13T21:53:46.210Z,7.97
2022-09-13T21:56:15.408Z,6.25
2022-09-13T21:58:42.712Z,6.10
2022-09-13T22:01:14.354Z,6.95
2022-09-13T22:03:43.270Z,6.03
2022-09-13T22:06:19.639Z,4.40
2022-09-13T22:08:49.333Z,6.53
2022-09-13T22:11:19.908Z,8.68
2022-09-13T22:13:47.732Z,9.18
2022-09-13T22:16:21.300Z,2.75
2022-09-13T22:18:57.730Z,2.67
2022-09-13T22:21:27.409Z,7.10
2022-09-13T22:23:54.566Z,4.50
2022-09-13T22:26:23.935Z,5.15
2022-09-13T22:28:51.296Z,5.80
2022-09-13T22:31:20.749Z,9.18
2022-09-13T22:33:47.530Z,4.40
2022-09-13T22:36:15.834Z,6.28
2022-09-13T22:38:43.691Z,5.30
2022-09-13T22:41:14.166Z,3.35
2022-09-13T22:43:41.754Z,6.15
2022-09-13T22:46:09.841Z,5.13
2022-09-13T22:48:36.707Z,4.40
2022-09-13T22:51:06.173Z,3.22
2022-09-13T22:53:35.170Z,5.13
2022-09-13T22:56:05.989Z,2.63
2022-09-13T22:58:32.716Z,4.38
2022-09-13T23:01:04.750Z,6.95
2022-09-13T23:03:31.938Z,4.97
2022-09-13T23:05:58.619Z,2.72
2022-09-13T23:08:28.389Z,2.78
2022-09-13T23:10:56.159Z,3.63
2022-09-13T23:13:22.939Z,4.78
2022-09-13T23:15:50.085Z,3.63
2022-09-13T23:18:16.781Z,3.13
2022-09-13T23:20:43.505Z,5.13
2022-09-13T23:23:11.254Z,5.07
2022-09-13T23:25:37.980Z,4.85
2022-09-13T23:28:04.699Z,3.97
2022-09-13T23:30:31.354Z,4.97
2022-09-13T23:32:58.105Z,3.53
2022-09-13T23:35:24.866Z,5.72
2022-09-13T23:37:51.550Z,3.25
2022-09-13T23:40:18.299Z,2.85
2022-09-13T23:42:44.997Z,6.80
2022-09-13T23:45:12.272Z,4.82
2022-09-13T23:47:39.085Z,3.70
2022-09-13T23:50:06.163Z,5.38
2022-09-13T23:52:33.051Z,4.78
2022-09-13T23:55:00.619Z,5.47
2022-09-13T23:57:27.321Z,3.28
2022-09-13T23:59:53.970Z,4.75
